Time;durP1;ratioP1;P1;durP2;ratioP2;P2;SDS_P1;SDS_P2;PMS_P1;PMS_P2;Temp;Humidity;BMP_temperature;BMP_pressure;BME280_temperature;BME280_humidity;BME280_pressure;Samples;Min_cycle;Max_cycle;Signal;HPM_P1;HPM_P2
2021/09/18 00:01:31;;;;;;;8.25;7.25;;;16.70;99.90;;;;;;5110619;28;20463;-39
2021/09/18 00:03:57;;;;;;;9.32;7.65;;;16.60;99.90;;;;;;5109744;28;20023;-37
2021/09/18 00:06:22;;;;;;;9.02;8.13;;;16.70;99.90;;;;;;5110745;28;20036;-33
2021/09/18 00:08:48;;;;;;;10.98;8.10;;;16.60;99.90;;;;;;5111447;28;20035;-34
2021/09/18 00:11:13;;;;;;;8.85;7.95;;;16.60;99.90;;;;;;5110610;28;20034;-37
2021/09/18 00:13:39;;;;;;;10.45;7.90;;;16.50;99.90;;;;;;5111377;28;20058;-35
2021/09/18 00:16:05;;;;;;;8.43;7.43;;;16.50;99.90;;;;;;5110319;28;20522;-35
2021/09/18 00:18:30;;;;;;;9.60;8.55;;;16.50;99.90;;;;;;5109678;28;20019;-40
2021/09/18 00:20:57;;;;;;;9.77;8.77;;;16.50;99.90;;;;;;5109632;28;20523;-38
2021/09/18 00:23:23;;;;;;;9.75;8.57;;;16.50;99.90;;;;;;5109528;28;20112;-38
2021/09/18 00:25:49;;;;;;;10.32;8.30;;;16.40;99.90;;;;;;5109939;28;20539;-37
2021/09/18 00:28:14;;;;;;;10.05;8.50;;;16.40;99.90;;;;;;5110951;28;20027;-39
2021/09/18 00:30:40;;;;;;;9.27;8.38;;;16.40;99.90;;;;;;5111008;28;20024;-35
2021/09/18 00:33:08;;;;;;;9.00;7.72;;;16.30;99.90;;;;;;5109195;28;20038;-34
2021/09/18 00:35:34;;;;;;;11.18;8.32;;;16.30;99.90;;;;;;5110887;28;20016;-39
2021/09/18 00:37:59;;;;;;;10.15;8.35;;;16.30;99.90;;;;;;5110671;28;20446;-35
2021/09/18 00:40:25;;;;;;;10.05;8.57;;;16.30;99.90;;;;;;5109684;28;20024;-39
2021/09/18 00:42:53;;;;;;;9.95;8.13;;;16.20;99.90;;;;;;5110186;28;20046;-37
2021/09/18 00:45:19;;;;;;;8.57;7.68;;;16.20;99.90;;;;;;5110957;28;20486;-38
2021/09/18 00:47:44;;;;;;;8.50;7.47;;;16.20;99.90;;;;;;5108962;28;20028;-38
2021/09/18 00:50:10;;;;;;;7.70;6.95;;;16.10;99.90;;;;;;5109882;28;20043;-36
2021/09/18 00:52:35;;;;;;;9.20;7.90;;;16.10;99.90;;;;;;5108217;28;20188;-35
2021/09/18 00:55:02;;;;;;;8.07;7.28;;;16.10;99.90;;;;;;5108388;28;20068;-38
2021/09/18 00:57:29;;;;;;;9.63;8.38;;;16.10;99.90;;;;;;5108130;28;20027;-36
2021/09/18 01:00:01;;;;;;;9.60;8.02;;;16.00;99.90;;;;;;5109151;28;20048;-36
2021/09/18 01:02:30;;;;;;;9.73;8.73;;;16.00;99.90;;;;;;5108730;28;20107;-36
2021/09/18 01:04:56;;;;;;;9.52;8.38;;;16.00;99.90;;;;;;5107958;28;20027;-39
2021/09/18 01:07:22;;;;;;;8.95;8.02;;;15.90;99.90;;;;;;5107307;28;20046;-36
2021/09/18 01:09:49;;;;;;;9.27;7.95;;;15.90;99.90;;;;;;5108239;28;20138;-39
2021/09/18 01:12:18;;;;;;;8.00;7.20;;;15.90;99.90;;;;;;5109622;28;20116;-37
2021/09/18 01:14:46;;;;;;;8.07;7.28;;;15.90;99.90;;;;;;5109305;28;20016;-38
2021/09/18 01:17:15;;;;;;;9.18;7.60;;;15.90;99.90;;;;;;5110477;28;20028;-37
2021/09/18 01:19:40;;;;;;;7.43;6.65;;;15.90;99.90;;;;;;5110126;28;20024;-36
2021/09/18 01:22:07;;;;;;;6.97;6.03;;;15.80;99.90;;;;;;5109532;28;20498;-36
2021/09/18 01:24:34;;;;;;;7.82;6.18;;;15.80;99.90;;;;;;5110383;28;20024;-37
2021/09/18 01:27:02;;;;;;;6.38;5.50;;;15.80;99.90;;;;;;5109811;28;20036;-38
2021/09/18 01:29:28;;;;;;;6.78;5.80;;;15.80;99.90;;;;;;5109342;28;20027;-36
2021/09/18 01:31:56;;;;;;;6.78;6.07;;;15.70;99.90;;;;;;5109955;28;20027;-38
2021/09/18 01:34:23;;;;;;;8.27;5.63;;;15.70;99.90;;;;;;5110178;28;20027;-38
2021/09/18 01:36:51;;;;;;;6.47;5.05;;;15.70;99.90;;;;;;5109182;28;20019;-37
2021/09/18 01:39:21;;;;;;;6.72;5.78;;;15.70;99.90;;;;;;5110303;28;20019;-37
2021/09/18 01:41:48;;;;;;;7.03;5.47;;;15.70;99.90;;;;;;5109177;28;20111;-36
2021/09/18 01:44:15;;;;;;;10.75;5.68;;;15.70;99.90;;;;;;5109423;28;20015;-34
2021/09/18 01:46:42;;;;;;;6.20;5.18;;;15.70;99.90;;;;;;5110196;28;20475;-36
2021/09/18 01:49:14;;;;;;;7.10;5.55;;;15.70;99.90;;;;;;5109831;28;20073;-37
2021/09/18 01:51:41;;;;;;;;;;;15.70;99.90;;;;;;5111984;28;20024;-38
2021/09/18 01:54:07;;;;;;;7.75;5.50;;;15.70;99.90;;;;;;5113260;28;20346;-39
2021/09/18 01:56:32;;;;;;;10.73;5.80;;;15.70;99.90;;;;;;5112985;28;20051;-38
2021/09/18 01:59:01;;;;;;;7.20;5.55;;;15.70;99.90;;;;;;5112803;28;20359;-37
2021/09/18 02:01:26;;;;;;;7.50;5.90;;;15.70;99.90;;;;;;5112494;28;20020;-39
2021/09/18 02:03:52;;;;;;;6.63;5.93;;;15.60;99.90;;;;;;5111165;28;20487;-38
2021/09/18 02:06:17;;;;;;;7.70;6.22;;;15.60;99.90;;;;;;5111337;28;20489;-35
2021/09/18 02:08:43;;;;;;;7.95;6.72;;;15.60;99.90;;;;;;5112785;28;20039;-36
2021/09/18 02:11:09;;;;;;;7.05;6.30;;;15.60;99.90;;;;;;5110549;28;20164;-39
2021/09/18 02:13:34;;;;;;;6.82;6.05;;;15.60;99.90;;;;;;5113545;28;20023;-38
2021/09/18 02:15:59;;;;;;;7.35;5.93;;;15.60;99.90;;;;;;5112966;28;20046;-39
2021/09/18 02:18:25;;;;;;;7.65;6.80;;;15.60;99.90;;;;;;5112717;28;20026;-36
2021/09/18 02:20:51;;;;;;;8.02;6.57;;;15.60;99.90;;;;;;5112103;28;20388;-39
2021/09/18 02:23:20;;;;;;;7.70;6.30;;;15.50;99.90;;;;;;5111448;28;20055;-34
2021/09/18 02:25:45;;;;;;;8.77;6.50;;;15.50;99.90;;;;;;5112300;28;20459;-35
2021/09/18 02:28:11;;;;;;;9.38;6.57;;;15.50;99.90;;;;;;5113213;28;20030;-37
2021/09/18 02:30:38;;;;;;;10.25;7.35;;;15.40;99.90;;;;;;5112431;28;20023;-38
2021/09/18 02:33:04;;;;;;;9.07;6.72;;;15.40;99.90;;;;;;5112740;28;20531;-39
2021/09/18 02:35:30;;;;;;;8.50;7.30;;;15.40;99.90;;;;;;5113342;28;20023;-36
2021/09/18 02:37:56;;;;;;;9.20;7.35;;;15.40;99.90;;;;;;5112269;28;20356;-39
2021/09/18 02:40:23;;;;;;;9.00;7.30;;;15.40;99.90;;;;;;5112599;28;20023;-38
2021/09/18 02:42:52;;;;;;;9.98;7.95;;;15.40;99.90;;;;;;5112038;28;20063;-36
2021/09/18 02:45:18;;;;;;;10.93;8.90;;;15.30;99.90;;;;;;5113265;28;20080;-36
2021/09/18 02:47:53;;;;;;;12.35;8.75;;;15.30;99.90;;;;;;5111833;28;20482;-37
2021/09/18 02:50:20;;;;;;;12.38;8.80;;;15.30;99.90;;;;;;5072336;28;20036;-36
2021/09/18 02:52:46;;;;;;;10.90;8.85;;;15.30;99.90;;;;;;5101618;28;20119;-38
2021/09/18 02:55:12;;;;;;;12.43;9.13;;;15.30;99.90;;;;;;5112514;28;20134;-36
2021/09/18 02:57:39;;;;;;;12.43;8.68;;;15.30;99.90;;;;;;5112320;28;20016;-36
2021/09/18 03:00:06;;;;;;;10.90;8.63;;;15.30;99.90;;;;;;5112053;28;20438;-38
2021/09/18 03:02:31;;;;;;;12.55;9.45;;;15.30;99.90;;;;;;5110737;28;20474;-39
2021/09/18 03:04:57;;;;;;;14.40;10.05;;;15.30;99.90;;;;;;5111901;28;20019;-36
2021/09/18 03:07:22;;;;;;;12.15;9.30;;;15.30;99.90;;;;;;5111476;28;20027;-38
2021/09/18 03:09:48;;;;;;;15.32;9.88;;;15.30;99.90;;;;;;5110304;28;20570;-37
2021/09/18 03:12:14;;;;;;;10.88;8.50;;;15.20;99.90;;;;;;5111052;28;20027;-39
2021/09/18 03:14:39;;;;;;;11.60;8.52;;;15.30;99.90;;;;;;5110068;28;20382;-37
2021/09/18 03:17:05;;;;;;;10.75;7.90;;;15.20;99.90;;;;;;5110372;28;20128;-36
2021/09/18 03:19:30;;;;;;;10.93;8.82;;;15.20;99.90;;;;;;5111933;28;20012;-38
2021/09/18 03:21:59;;;;;;;12.85;8.57;;;15.20;99.90;;;;;;5110355;28;20352;-38
2021/09/18 03:24:24;;;;;;;11.38;8.57;;;15.20;99.90;;;;;;5110910;28;20015;-37
2021/09/18 03:26:50;;;;;;;11.98;8.40;;;15.20;99.90;;;;;;5112322;28;20060;-36
2021/09/18 03:29:16;;;;;;;11.23;8.68;;;15.20;99.90;;;;;;5110767;28;20032;-34
2021/09/18 03:31:48;;;;;;;10.38;8.18;;;15.20;99.90;;;;;;5111390;28;20023;-31
2021/09/18 03:34:13;;;;;;;12.10;7.70;;;15.20;99.90;;;;;;5112381;28;20030;-32
2021/09/18 03:36:39;;;;;;;13.73;8.88;;;15.10;99.90;;;;;;5111354;28;20378;-37
2021/09/18 03:39:04;;;;;;;14.90;9.43;;;15.10;99.90;;;;;;5111443;28;20497;-36
2021/09/18 03:41:30;;;;;;;13.18;9.48;;;15.10;99.90;;;;;;5112371;28;20015;-37
2021/09/18 03:43:56;;;;;;;13.25;10.80;;;15.00;99.90;;;;;;5110477;28;20031;-34
2021/09/18 03:46:21;;;;;;;11.63;9.25;;;15.00;99.90;;;;;;5111143;28;20030;-36
2021/09/18 03:48:50;;;;;;;12.82;10.38;;;15.00;99.90;;;;;;5111333;28;20409;-33
2021/09/18 03:51:15;;;;;;;16.95;12.52;;;15.00;99.90;;;;;;5111208;28;20027;-38
2021/09/18 03:53:47;;;;;;;16.65;11.48;;;15.10;99.90;;;;;;5110033;28;20189;-33
2021/09/18 03:56:19;;;;;;;17.30;11.63;;;15.00;99.90;;;;;;5090050;28;20023;-37
2021/09/18 03:58:45;;;;;;;16.65;11.95;;;15.10;99.90;;;;;;5111372;28;20436;-35
2021/09/18 04:01:10;;;;;;;15.13;11.68;;;15.10;99.90;;;;;;5111537;28;20470;-39
2021/09/18 04:03:36;;;;;;;14.52;11.00;;;15.10;99.90;;;;;;5110938;28;20023;-38
2021/09/18 04:06:02;;;;;;;15.90;11.13;;;15.10;99.90;;;;;;5111076;28;20106;-36
2021/09/18 04:08:27;;;;;;;14.48;11.30;;;15.00;99.90;;;;;;5111443;28;20028;-36
2021/09/18 04:10:53;;;;;;;13.75;11.00;;;15.00;99.90;;;;;;5110177;28;20027;-34
2021/09/18 04:13:19;;;;;;;14.02;11.40;;;15.00;99.90;;;;;;5111119;28;20471;-37
2021/09/18 04:15:45;;;;;;;16.15;11.15;;;15.00;99.90;;;;;;5110196;28;20132;-34
2021/09/18 04:18:31;;;;;;;15.60;11.60;;;15.00;99.90;;;;;;5110042;28;20069;-34
2021/09/18 04:20:59;;;;;;;12.80;9.88;;;15.00;99.90;;;;;;5107691;28;20039;-37
2021/09/18 04:23:25;;;;;;;14.35;10.98;;;14.90;99.90;;;;;;5109940;28;20379;-37
2021/09/18 04:25:50;;;;;;;16.45;11.02;;;14.90;99.90;;;;;;5108010;28;20019;-39
2021/09/18 04:28:16;;;;;;;14.73;11.43;;;14.80;99.90;;;;;;5109893;28;20443;-38
2021/09/18 04:30:42;;;;;;;16.38;12.23;;;14.80;99.90;;;;;;5108614;28;20519;-35
2021/09/18 04:33:07;;;;;;;15.23;11.45;;;14.80;99.90;;;;;;5109415;28;20030;-35
2021/09/18 04:35:33;;;;;;;16.67;11.07;;;14.80;99.90;;;;;;5110742;28;20024;-39
2021/09/18 04:37:58;;;;;;;15.43;11.55;;;14.80;99.90;;;;;;5110715;28;20088;-36
2021/09/18 04:40:24;;;;;;;15.88;11.23;;;14.80;99.90;;;;;;5110224;28;20068;-36
2021/09/18 04:42:50;;;;;;;15.82;11.90;;;14.80;99.90;;;;;;5110331;28;20452;-40
2021/09/18 04:45:16;;;;;;;16.65;11.95;;;14.80;99.90;;;;;;5110729;28;20023;-40
2021/09/18 04:47:41;;;;;;;17.83;12.32;;;14.80;99.90;;;;;;5109771;28;20028;-35
2021/09/18 04:50:07;;;;;;;15.38;12.02;;;14.80;99.90;;;;;;5110915;28;20467;-37
2021/09/18 04:52:36;;;;;;;15.63;11.70;;;14.80;99.90;;;;;;5109979;28;20372;-37
2021/09/18 04:55:06;;;;;;;14.52;11.43;;;14.70;99.90;;;;;;5110433;28;20080;-36
2021/09/18 04:57:34;;;;;;;15.40;11.02;;;14.70;99.90;;;;;;5109831;28;20023;-37
2021/09/18 05:00:00;;;;;;;14.60;11.35;;;14.70;99.90;;;;;;5109825;28;20016;-35
2021/09/18 05:02:25;;;;;;;13.73;10.68;;;14.60;99.90;;;;;;5110126;28;20027;-39
2021/09/18 05:04:51;;;;;;;14.68;11.45;;;14.60;99.90;;;;;;5109808;28;20047;-36
2021/09/18 05:07:16;;;;;;;13.38;10.63;;;14.60;99.90;;;;;;5109041;28;20045;-38
2021/09/18 05:09:42;;;;;;;13.85;9.90;;;14.60;99.90;;;;;;5110233;28;20028;-35
2021/09/18 05:12:08;;;;;;;12.07;10.35;;;14.60;99.90;;;;;;5109965;28;20127;-39
2021/09/18 05:14:33;;;;;;;12.48;10.05;;;14.50;99.90;;;;;;5109788;28;20046;-39
2021/09/18 05:16:59;;;;;;;14.35;10.40;;;14.50;99.90;;;;;;5109942;28;20043;-36
2021/09/18 05:19:24;;;;;;;13.27;9.75;;;14.50;99.90;;;;;;5110660;28;20063;-38
2021/09/18 05:21:50;;;;;;;13.80;9.80;;;14.50;99.90;;;;;;5108404;28;20111;-39
2021/09/18 05:24:15;;;;;;;11.85;9.43;;;14.50;99.90;;;;;;5109209;28;20051;-37
2021/09/18 05:26:41;;;;;;;11.00;8.80;;;14.50;99.90;;;;;;5112632;28;20249;-38
2021/09/18 05:29:06;;;;;;;12.40;9.10;;;14.50;99.90;;;;;;5112052;28;20023;-39
2021/09/18 05:31:32;;;;;;;11.40;8.63;;;14.50;99.90;;;;;;5112407;28;20022;-37
2021/09/18 05:33:57;;;;;;;9.82;8.40;;;14.50;99.90;;;;;;5112185;28;20024;-35
2021/09/18 05:36:23;;;;;;;9.32;8.18;;;14.40;99.90;;;;;;5112420;28;20024;-37
2021/09/18 05:38:48;;;;;;;10.98;9.07;;;14.50;99.90;;;;;;5113539;28;20024;-36
2021/09/18 05:41:14;;;;;;;12.35;9.13;;;14.50;99.90;;;;;;5114384;28;20020;-38
2021/09/18 05:43:39;;;;;;;10.85;8.73;;;14.50;99.90;;;;;;5113180;28;20394;-37
2021/09/18 05:46:05;;;;;;;9.70;8.40;;;14.50;99.90;;;;;;5113750;28;20039;-36
2021/09/18 05:48:30;;;;;;;10.38;8.70;;;14.50;99.90;;;;;;5111751;28;20051;-39
2021/09/18 05:50:56;;;;;;;10.88;9.32;;;14.60;99.90;;;;;;5111931;28;20389;-39
2021/09/18 05:53:21;;;;;;;9.60;8.13;;;14.50;99.90;;;;;;5112303;28;20514;-37
2021/09/18 05:55:47;;;;;;;11.55;8.85;;;14.60;99.90;;;;;;5111205;28;20032;-37
2021/09/18 05:58:12;;;;;;;11.02;8.80;;;14.60;99.90;;;;;;5112124;28;20102;-38
2021/09/18 06:00:38;;;;;;;12.15;9.20;;;14.60;99.90;;;;;;5112682;28;20015;-37
2021/09/18 06:03:03;;;;;;;10.25;9.20;;;14.60;99.90;;;;;;5113629;28;20463;-38
2021/09/18 06:05:29;;;;;;;12.75;9.25;;;14.60;99.90;;;;;;5113940;28;20039;-39
2021/09/18 06:07:54;;;;;;;13.55;9.88;;;14.60;99.90;;;;;;5113104;28;20128;-37
2021/09/18 06:10:20;;;;;;;10.95;9.30;;;14.60;99.90;;;;;;5113005;28;20022;-39
2021/09/18 06:12:45;;;;;;;12.05;9.50;;;14.70;99.90;;;;;;5113084;28;20023;-38
2021/09/18 06:15:11;;;;;;;13.30;10.30;;;14.70;99.90;;;;;;5113035;28;20089;-37
2021/09/18 06:17:37;;;;;;;11.43;9.68;;;14.80;99.90;;;;;;5113493;28;20035;-38
2021/09/18 06:20:09;;;;;;;11.70;9.60;;;14.80;99.90;;;;;;5112907;28;20110;-39
2021/09/18 06:22:35;;;;;;;10.73;9.50;;;14.80;99.90;;;;;;5113172;28;20474;-35
2021/09/18 06:25:00;;;;;;;11.80;9.82;;;14.90;99.90;;;;;;5112763;28;20103;-34
2021/09/18 06:27:26;;;;;;;12.20;9.90;;;14.90;99.90;;;;;;5113444;28;20108;-37
2021/09/18 06:29:51;;;;;;;11.43;10.07;;;14.90;99.90;;;;;;5112551;28;20020;-39
2021/09/18 06:32:17;;;;;;;10.85;8.88;;;15.00;99.90;;;;;;5112707;28;20020;-37
2021/09/18 06:34:42;;;;;;;11.73;9.20;;;15.00;99.90;;;;;;5111559;28;20644;-37
2021/09/18 06:37:08;;;;;;;10.50;9.18;;;15.10;99.90;;;;;;5110962;28;20020;-40
2021/09/18 06:39:34;;;;;;;10.38;9.25;;;15.10;99.90;;;;;;5110953;28;20496;-39
2021/09/18 06:42:00;;;;;;;11.60;9.40;;;15.20;99.90;;;;;;5111227;28;20016;-36
2021/09/18 06:44:26;;;;;;;13.68;9.93;;;15.30;99.90;;;;;;5111105;28;20019;-38
2021/09/18 06:46:51;;;;;;;11.85;10.30;;;15.30;99.90;;;;;;5111282;28;20088;-39
2021/09/18 06:49:17;;;;;;;12.45;10.30;;;15.30;99.90;;;;;;5112943;28;20668;-38
2021/09/18 06:51:43;;;;;;;10.55;9.45;;;15.40;99.90;;;;;;5112983;28;20416;-40
2021/09/18 06:54:08;;;;;;;12.48;10.95;;;15.50;99.90;;;;;;5112200;28;20020;-41
2021/09/18 06:56:34;;;;;;;12.93;11.35;;;15.50;99.90;;;;;;5093144;28;20152;-39
2021/09/18 06:58:59;;;;;;;13.35;11.55;;;15.60;99.90;;;;;;5111687;28;20159;-37
2021/09/18 07:01:27;;;;;;;11.75;10.52;;;15.60;99.90;;;;;;5111825;28;20027;-37
2021/09/18 07:03:53;;;;;;;12.65;10.27;;;15.60;99.90;;;;;;5091616;28;20497;-37
2021/09/18 07:06:19;;;;;;;10.98;9.80;;;15.70;99.90;;;;;;5105889;28;20437;-39
2021/09/18 07:08:44;;;;;;;11.70;10.25;;;15.70;99.90;;;;;;5111454;28;20455;-38
2021/09/18 07:11:10;;;;;;;12.30;10.35;;;15.80;99.90;;;;;;5109704;28;20080;-39
2021/09/18 07:13:35;;;;;;;11.77;10.02;;;15.80;99.90;;;;;;5090993;28;20016;-39
2021/09/18 07:16:02;;;;;;;13.70;10.50;;;15.90;99.90;;;;;;5100273;28;20066;-37
2021/09/18 07:18:32;;;;;;;12.98;10.90;;;16.00;99.90;;;;;;5109116;28;20359;-36
2021/09/18 07:20:58;;;;;;;12.13;10.82;;;16.00;99.90;;;;;;5107908;28;20008;-38
2021/09/18 07:23:24;;;;;;;15.45;10.10;;;16.10;99.90;;;;;;5107865;28;20035;-36
2021/09/18 07:25:52;;;;;;;14.65;10.52;;;16.20;99.90;;;;;;5085272;28;20035;-34
2021/09/18 07:28:18;;;;;;;16.33;10.65;;;16.30;99.90;;;;;;5111340;28;20031;-36
2021/09/18 07:30:44;;;;;;;12.27;10.63;;;16.30;99.90;;;;;;5104824;28;20378;-36
2021/09/18 07:33:09;;;;;;;11.95;10.60;;;16.40;99.90;;;;;;5110999;28;20600;-38
2021/09/18 07:35:35;;;;;;;14.88;11.27;;;16.40;99.90;;;;;;5110529;28;20027;-40
2021/09/18 07:38:03;;;;;;;11.52;10.32;;;16.40;99.90;;;;;;5110562;28;20098;-37
2021/09/18 07:40:36;;;;;;;11.02;9.93;;;16.50;99.90;;;;;;5110885;28;20030;-38
2021/09/18 07:43:02;;;;;;;9.15;8.25;;;16.60;99.90;;;;;;5102957;28;20061;-39
2021/09/18 07:45:27;;;;;;;10.52;8.77;;;16.70;99.90;;;;;;5068542;28;20028;-39
2021/09/18 07:47:53;;;;;;;9.98;8.98;;;16.80;99.90;;;;;;5102758;28;20036;-40
2021/09/18 07:50:19;;;;;;;11.52;10.32;;;16.90;99.90;;;;;;5108653;28;20148;-38
2021/09/18 07:52:44;;;;;;;13.82;11.52;;;16.90;99.90;;;;;;5108972;28;20505;-37
2021/09/18 07:55:10;;;;;;;11.48;10.38;;;17.00;99.90;;;;;;5093433;28;20020;-37
2021/09/18 07:57:36;;;;;;;11.52;10.32;;;17.00;99.90;;;;;;5106373;28;20440;-39
2021/09/18 08:00:12;;;;;;;11.15;10.05;;;17.00;99.90;;;;;;5110127;28;20484;-40
2021/09/18 08:02:37;;;;;;;11.15;9.45;;;17.00;99.90;;;;;;5095817;28;20807;-36
2021/09/18 08:05:04;;;;;;;9.60;8.60;;;17.10;99.90;;;;;;5083624;28;20510;-37
2021/09/18 08:07:29;;;;;;;9.07;8.18;;;17.10;99.90;;;;;;5086711;28;20046;-39
2021/09/18 08:09:56;;;;;;;10.18;9.13;;;17.20;99.90;;;;;;5109223;28;20024;-39
2021/09/18 08:12:22;;;;;;;11.25;10.13;;;17.20;99.90;;;;;;5110375;28;20390;-38
2021/09/18 08:14:51;;;;;;;10.20;9.20;;;17.30;99.90;;;;;;5109787;28;20032;-37
2021/09/18 08:17:16;;;;;;;9.70;8.80;;;17.30;99.90;;;;;;5109205;28;20020;-43
2021/09/18 08:19:42;;;;;;;10.00;9.00;;;17.40;99.90;;;;;;5108587;28;20016;-41
2021/09/18 08:22:08;;;;;;;8.75;7.93;;;17.40;99.90;;;;;;5108795;28;20495;-42
2021/09/18 08:24:33;;;;;;;11.07;9.98;;;17.50;99.90;;;;;;5105457;28;20372;-43
2021/09/18 08:26:59;;;;;;;11.13;10.02;;;17.60;99.90;;;;;;5089179;28;20024;-40
2021/09/18 08:29:24;;;;;;;10.07;9.18;;;17.50;99.90;;;;;;5108505;28;20028;-37
2021/09/18 08:31:50;;;;;;;9.45;8.55;;;17.60;99.90;;;;;;5099890;28;20395;-39
2021/09/18 08:34:16;;;;;;;9.50;8.60;;;17.60;99.90;;;;;;5105475;28;20020;-37
2021/09/18 08:36:42;;;;;;;10.70;9.60;;;17.60;99.90;;;;;;5105979;28;20445;-39
2021/09/18 08:39:08;;;;;;;10.55;9.10;;;17.60;99.90;;;;;;5090082;28;20105;-38
2021/09/18 08:41:34;;;;;;;9.93;8.93;;;17.70;99.90;;;;;;5081494;28;20028;-37
2021/09/18 08:44:00;;;;;;;9.45;8.55;;;17.70;99.90;;;;;;5088940;28;20020;-36
2021/09/18 08:46:26;;;;;;;10.00;9.05;;;17.60;99.90;;;;;;5107846;28;20399;-35
2021/09/18 08:48:53;;;;;;;10.32;9.32;;;17.60;99.90;;;;;;5091171;28;20601;-37
2021/09/18 08:51:22;;;;;;;10.23;8.90;;;17.50;99.90;;;;;;5102270;28;20023;-37
2021/09/18 08:53:48;;;;;;;9.27;8.38;;;17.50;99.90;;;;;;5105640;28;20004;-36
2021/09/18 08:56:16;;;;;;;9.43;8.52;;;17.50;99.90;;;;;;5107897;28;20020;-37
2021/09/18 08:58:42;;;;;;;8.43;7.63;;;17.50;99.90;;;;;;5107278;28;20016;-38
2021/09/18 09:01:08;;;;;;;9.23;8.32;;;17.50;99.90;;;;;;5107533;28;20500;-37
2021/09/18 09:03:36;;;;;;;10.02;9.13;;;17.50;99.90;;;;;;5075691;28;20190;-38
2021/09/18 09:06:06;;;;;;;9.43;8.52;;;17.50;99.90;;;;;;5099751;28;20106;-38
2021/09/18 09:08:32;;;;;;;8.45;7.65;;;17.50;99.90;;;;;;5109073;28;20116;-38
2021/09/18 09:11:15;;;;;;;10.25;9.15;;;17.60;99.90;;;;;;5095216;28;20092;-40
2021/09/18 09:14:08;;;;;;;9.18;7.88;;;17.60;99.90;;;;;;5067302;28;20039;-39
2021/09/18 09:16:36;;;;;;;10.55;8.82;;;17.60;99.90;;;;;;5101219;28;20036;-44
2021/09/18 09:19:15;;;;;;;10.40;9.38;;;17.70;99.90;;;;;;5109940;28;20027;-41
2021/09/18 09:21:53;;;;;;;11.30;8.48;;;17.70;99.90;;;;;;5103011;28;20016;-41
2021/09/18 09:24:23;;;;;;;10.93;9.15;;;17.80;99.90;;;;;;5107091;28;20027;-38
2021/09/18 09:27:13;;;;;;;10.00;8.85;;;17.80;99.90;;;;;;5108383;28;20033;-37
2021/09/18 09:29:54;;;;;;;9.13;8.20;;;17.90;99.90;;;;;;5108078;28;20020;-41
2021/09/18 09:32:32;;;;;;;9.38;8.40;;;17.90;99.90;;;;;;5109917;28;20501;-41
2021/09/18 09:35:02;;;;;;;9.25;8.35;;;18.00;99.90;;;;;;5108771;28;20020;-40
2021/09/18 09:37:27;;;;;;;8.30;7.50;;;18.00;99.90;;;;;;5110014;28;20016;-40
2021/09/18 09:39:58;;;;;;;10.60;9.23;;;18.00;99.90;;;;;;5090398;28;20045;-38
2021/09/18 09:42:29;;;;;;;9.80;8.80;;;18.10;99.90;;;;;;5098066;28;20110;-37
2021/09/18 09:45:22;;;;;;;8.95;8.05;;;18.10;99.90;;;;;;5109513;28;20028;-35
2021/09/18 09:48:01;;;;;;;10.02;8.95;;;18.20;99.90;;;;;;5108157;28;20070;-38
2021/09/18 09:50:27;;;;;;;9.43;8.40;;;18.20;99.90;;;;;;5107323;28;20103;-39
2021/09/18 09:52:54;;;;;;;8.93;8.02;;;18.30;99.90;;;;;;5082026;28;20111;-41
2021/09/18 09:55:20;;;;;;;10.20;8.73;;;18.40;99.90;;;;;;5081135;28;20032;-38
2021/09/18 09:57:57;;;;;;;10.73;9.27;;;18.40;99.90;;;;;;5089221;28;20094;-41
2021/09/18 10:00:23;;;;;;;11.32;9.93;;;18.50;99.90;;;;;;5080239;28;20031;-39
2021/09/18 10:02:51;;;;;;;12.20;10.55;;;18.60;99.90;;;;;;5093239;28;20027;-38
2021/09/18 10:05:17;;;;;;;12.35;10.68;;;18.70;99.90;;;;;;5088025;28;20021;-38
2021/09/18 10:07:43;;;;;;;10.23;8.88;;;18.70;99.90;;;;;;5104784;28;20093;-38
2021/09/18 10:10:11;;;;;;;9.90;8.85;;;18.80;99.90;;;;;;5108284;28;20044;-37
2021/09/18 10:12:39;;;;;;;13.15;11.63;;;18.80;99.90;;;;;;5109997;28;20023;-42
2021/09/18 10:15:07;;;;;;;13.50;11.55;;;18.80;99.90;;;;;;5092368;28;20064;-42
2021/09/18 10:17:36;;;;;;;14.02;11.82;;;18.90;99.90;;;;;;5107365;28;20440;-40
2021/09/18 10:25:41;;;;;;;14.73;12.55;;;19.20;99.90;;;;;;5072522;28;20518;-43
2021/09/18 10:28:10;;;;;;;16.20;13.68;;;19.30;99.90;;;;;;5103406;28;20040;-40
2021/09/18 10:30:38;;;;;;;17.20;12.70;;;19.40;99.90;;;;;;5070635;28;20061;-40
2021/09/18 10:33:05;;;;;;;13.93;12.35;;;19.40;99.90;;;;;;5100972;28;20076;-42
2021/09/18 10:35:32;;;;;;;13.45;11.73;;;19.50;99.90;;;;;;5113459;28;20028;-40
2021/09/18 10:38:17;;;;;;;15.45;12.88;;;19.50;99.90;;;;;;5111811;28;20038;-35
2021/09/18 10:40:54;;;;;;;15.65;13.48;;;19.40;99.90;;;;;;5112741;28;20020;-41
2021/09/18 10:43:26;;;;;;;15.23;13.63;;;19.50;99.90;;;;;;5113122;28;20024;-41
2021/09/18 10:45:52;;;;;;;17.15;14.63;;;19.60;99.90;;;;;;5112306;28;20031;-41
2021/09/18 10:48:38;;;;;;;21.95;18.35;;;19.60;99.90;;;;;;5112986;28;20030;-38
2021/09/18 10:51:05;;;;;;;22.00;18.35;;;19.70;99.90;;;;;;5112499;28;20066;-37
2021/09/18 10:54:01;;;;;;;20.77;17.75;;;19.70;99.90;;;;;;5112488;28;20016;-40
2021/09/18 10:57:01;;;;;;;19.30;16.52;;;19.70;99.90;;;;;;5112639;28;20023;-38
2021/09/18 10:59:43;;;;;;;17.75;14.52;;;19.80;99.90;;;;;;5112158;28;20024;-37
2021/09/18 11:02:30;;;;;;;25.20;20.17;;;19.80;99.90;;;;;;5112916;28;20032;-39
2021/09/18 11:05:06;;;;;;;24.80;19.63;;;19.80;99.90;;;;;;5109692;28;20031;-32
2021/09/18 11:07:40;;;;;;;22.13;18.23;;;19.90;99.90;;;;;;5112085;28;20050;-39
2021/09/18 11:10:14;;;;;;;20.25;17.38;;;20.00;99.90;;;;;;5109744;28;20076;-37
2021/09/18 11:12:41;;;;;;;24.52;20.23;;;20.10;99.90;;;;;;5109699;28;20386;-35
2021/09/18 11:15:12;;;;;;;23.38;19.63;;;20.20;99.90;;;;;;5110075;28;20032;-38
2021/09/18 11:17:45;;;;;;;22.65;19.20;;;20.30;99.90;;;;;;5110745;28;20088;-35
2021/09/18 11:20:16;;;;;;;21.48;16.38;;;20.30;99.90;;;;;;5111403;28;20024;-36
2021/09/18 11:22:52;;;;;;;21.63;17.70;;;20.40;99.90;;;;;;5110590;28;20137;-38
2021/09/18 11:25:32;;;;;;;16.52;14.52;;;20.50;99.90;;;;;;5109973;28;20103;-38
2021/09/18 11:28:04;;;;;;;20.20;15.82;;;20.50;99.90;;;;;;5107029;28;20020;-39
2021/09/18 11:30:42;;;;;;;20.95;17.92;;;20.70;99.90;;;;;;5110362;28;20028;-39
2021/09/18 11:33:08;;;;;;;23.48;18.55;;;20.70;99.90;;;;;;5111599;28;20019;-38
2021/09/18 11:35:36;;;;;;;23.08;19.10;;;20.80;99.90;;;;;;5111214;28;20475;-38
2021/09/18 11:38:07;;;;;;;22.80;19.10;;;20.80;99.90;;;;;;5111819;28;20026;-35
2021/09/18 11:40:35;;;;;;;22.70;19.65;;;20.90;99.90;;;;;;5111116;28;20032;-39
2021/09/18 11:43:01;;;;;;;24.73;20.63;;;21.00;99.90;;;;;;5111099;28;20360;-37
2021/09/18 11:45:28;;;;;;;20.17;17.90;;;21.00;99.90;;;;;;5111823;28;20020;-39
2021/09/18 11:47:58;;;;;;;22.75;18.65;;;21.00;99.90;;;;;;5110784;28;20131;-38
2021/09/18 11:50:42;;;;;;;18.40;15.98;;;21.00;99.90;;;;;;5111816;28;20015;-38
2021/09/18 11:53:09;;;;;;;22.73;18.23;;;21.10;99.90;;;;;;5111140;28;20077;-36
2021/09/18 11:55:48;;;;;;;15.77;14.07;;;21.10;99.90;;;;;;5110854;28;20092;-37
2021/09/18 11:58:17;;;;;;;18.83;15.80;;;21.10;99.90;;;;;;5111610;28;20038;-37
2021/09/18 12:00:58;;;;;;;19.35;16.50;;;21.10;99.90;;;;;;5111460;28;20023;-37
2021/09/18 12:03:55;;;;;;;20.83;17.77;;;21.10;99.90;;;;;;5111003;28;20016;-35
2021/09/18 12:06:20;;;;;;;21.67;16.98;;;21.20;99.90;;;;;;5105862;28;20297;-36
2021/09/18 12:08:53;;;;;;;23.02;18.27;;;21.20;99.90;;;;;;5110347;28;20333;-36
2021/09/18 12:11:19;;;;;;;19.77;15.93;;;21.20;99.90;;;;;;5110950;28;20023;-40
2021/09/18 12:13:51;;;;;;;22.55;17.45;;;21.20;99.90;;;;;;5111113;28;20056;-38
2021/09/18 12:16:21;;;;;;;21.27;17.60;;;21.20;99.90;;;;;;5109443;28;20066;-39
2021/09/18 12:18:49;;;;;;;19.15;15.82;;;21.20;99.90;;;;;;5109400;28;20024;-36
2021/09/18 12:21:25;;;;;;;20.85;15.85;;;21.20;99.90;;;;;;5109237;28;20008;-37
2021/09/18 12:24:05;;;;;;;20.70;17.20;;;21.20;99.90;;;;;;5108226;28;20027;-37
2021/09/18 12:26:33;;;;;;;19.30;15.25;;;21.10;99.90;;;;;;5109092;28;20020;-39
2021/09/18 12:29:14;;;;;;;16.77;14.48;;;21.10;99.90;;;;;;5109350;28;20123;-39
2021/09/18 12:31:42;;;;;;;15.98;14.27;;;21.10;99.90;;;;;;5109542;28;20015;-38
2021/09/18 12:34:12;;;;;;;19.63;15.65;;;21.10;99.90;;;;;;5110505;28;20027;-39
2021/09/18 12:36:38;;;;;;;18.77;14.85;;;21.10;99.90;;;;;;5109189;28;20011;-36
2021/09/18 12:39:08;;;;;;;17.60;14.23;;;21.10;99.90;;;;;;5094452;28;20251;-36
2021/09/18 12:41:35;;;;;;;17.02;14.60;;;21.00;99.90;;;;;;5097825;28;20020;-39
2021/09/18 12:44:04;;;;;;;15.32;12.73;;;21.00;99.90;;;;;;5109548;28;20455;-38
2021/09/18 12:46:38;;;;;;;17.10;13.65;;;20.90;99.90;;;;;;5111111;28;20023;-37